createdAt,value
2018-09-06T00:00:12.774Z,98968.75
2018-09-06T00:00:43.957Z,98972.22
2018-09-06T00:01:15.077Z,98970.53
2018-09-06T00:01:46.237Z,98969.70
2018-09-06T00:02:17.367Z,98974.75
2018-09-06T00:02:48.490Z,98972.00
2018-09-06T00:03:19.670Z,98970.67
2018-09-06T00:03:50.866Z,98971.73
2018-09-06T00:04:22.054Z,98974.03
2018-09-06T00:04:53.252Z,98971.84
2018-09-06T00:05:24.331Z,98972.22
2018-09-06T00:05:55.520Z,98973.05
2018-09-06T00:06:26.648Z,98973.80
2018-09-06T00:06:57.866Z,98975.88
2018-09-06T00:07:29.057Z,98976.14
2018-09-06T00:08:00.238Z,98968.09
2018-09-06T00:08:31.539Z,98974.22
2018-09-06T00:09:02.733Z,98972.89
2018-09-06T00:09:33.924Z,98971.00
2018-09-06T00:10:05.051Z,98975.45
2018-09-06T00:10:36.179Z,98968.73
2018-09-06T00:11:07.404Z,98973.53
2018-09-06T00:11:38.544Z,98976.55
2018-09-06T00:12:09.726Z,98976.34
2018-09-06T00:12:40.861Z,98974.42
2018-09-06T00:13:12.021Z,98972.73
2018-09-06T00:13:43.166Z,98976.80
2018-09-06T00:14:14.335Z,98976.55
2018-09-06T00:14:45.520Z,98977.49
2018-09-06T00:15:16.648Z,98976.77
2018-09-06T00:15:47.779Z,98972.44
2018-09-06T00:16:18.912Z,98975.65
2018-09-06T00:16:50.038Z,98975.39
2018-09-06T00:17:21.209Z,98976.22
2018-09-06T00:17:52.342Z,98976.22
2018-09-06T00:18:23.503Z,98972.63
2018-09-06T00:18:54.747Z,98973.58
2018-09-06T00:19:25.872Z,98978.98
2018-09-06T00:19:57.000Z,98975.39
2018-09-06T00:20:28.125Z,98978.52
2018-09-06T00:20:59.297Z,98975.88
2018-09-06T00:21:30.463Z,98977.88
2018-09-06T00:22:01.637Z,98977.02
2018-09-06T00:22:32.764Z,98979.66
2018-09-06T00:23:03.945Z,98975.13
2018-09-06T00:23:35.213Z,98972.86
2018-09-06T00:24:06.394Z,98969.27
2018-09-06T00:24:37.531Z,98975.65
2018-09-06T00:25:08.701Z,98967.34
2018-09-06T00:25:39.840Z,98968.84
2018-09-06T00:26:11.031Z,98975.22
2018-09-06T00:26:42.151Z,98970.69
2018-09-06T00:27:13.274Z,98970.20
2018-09-06T00:27:44.390Z,98971.06
2018-09-06T00:28:15.509Z,98976.23
2018-09-06T00:28:46.804Z,98970.09
2018-09-06T00:29:17.933Z,98970.09
2018-09-06T00:29:49.073Z,98965.30
2018-09-06T00:30:20.262Z,98969.14
2018-09-06T00:30:51.494Z,98968.19
2018-09-06T00:31:22.694Z,98971.78
2018-09-06T00:31:53.882Z,98966.88
2018-09-06T00:32:25.133Z,98963.85
2018-09-06T00:32:56.313Z,98968.77
2018-09-06T00:33:27.455Z,98971.41
2018-09-06T00:33:58.687Z,98967.44
2018-09-06T00:34:29.815Z,98960.38
2018-09-06T00:35:00.995Z,98967.44
2018-09-06T00:35:32.132Z,98969.14
2018-09-06T00:36:03.311Z,98968.31
2018-09-06T00:36:34.533Z,98968.77
2018-09-06T00:37:05.664Z,98962.91
2018-09-06T00:37:36.844Z,98965.55
2018-09-06T00:38:08.033Z,98963.28
2018-09-06T00:38:39.213Z,98966.88
2018-09-06T00:39:10.337Z,98961.96
2018-09-06T00:39:41.588Z,98971.59
2018-09-06T00:40:12.717Z,98966.67
2018-09-06T00:40:43.839Z,98965.23
2018-09-06T00:41:15.070Z,98968.25
2018-09-06T00:41:46.294Z,98973.80
2018-09-06T00:42:17.493Z,98968.85
2018-09-06T00:42:48.628Z,98970.92
2018-09-06T00:43:19.862Z,98975.64
2018-09-06T00:43:51.049Z,98964.83
2018-09-06T00:44:22.177Z,98962.56
2018-09-06T00:44:53.606Z,98962.08
2018-09-06T00:45:24.781Z,98964.14
2018-09-06T00:45:56.111Z,98965.34
2018-09-06T00:46:27.250Z,98959.98
2018-09-06T00:46:58.375Z,98957.10
2018-09-06T00:47:29.565Z,98961.81
2018-09-06T00:48:00.696Z,98962.10
2018-09-06T00:48:31.942Z,98963.31
2018-09-06T00:49:03.176Z,98961.50
2018-09-06T00:49:34.429Z,98957.27
2018-09-06T00:50:05.628Z,98958.14
2018-09-06T00:50:36.877Z,98956.03
2018-09-06T00:51:08.169Z,98955.78
2018-09-06T00:51:39.297Z,98955.52
2018-09-06T00:52:10.537Z,98953.94
2018-09-06T00:52:41.656Z,98946.50
2018-09-06T00:53:12.763Z,98952.74
2018-09-06T00:53:43.876Z,98948.52
2018-09-06T00:54:14.993Z,98948.86
2018-09-06T00:54:46.157Z,98951.99
2018-09-06T00:55:17.351Z,98954.64
2018-09-06T00:55:48.479Z,98956.45
2018-09-06T00:56:19.700Z,98954.87
2018-09-06T00:56:50.875Z,98956.27
2018-09-06T00:57:21.994Z,98959.41
2018-09-06T00:57:53.120Z,98962.88
2018-09-06T00:58:24.289Z,98956.77
2018-09-06T00:58:55.417Z,98959.41
2018-09-06T00:59:26.571Z,98957.34
2018-09-06T00:59:57.690Z,98965.64
2018-09-06T01:00:28.805Z,98959.03
2018-09-06T01:00:59.997Z,98958.58
2018-09-06T01:01:31.140Z,98961.47
2018-09-06T01:02:02.263Z,98964.00
2018-09-06T01:02:33.384Z,98966.04
2018-09-06T01:03:04.552Z,98969.31
2018-09-06T01:03:35.667Z,98967.42
2018-09-06T01:04:06.789Z,98959.29
2018-09-06T01:04:38.078Z,98955.13
2018-09-06T01:05:09.208Z,98969.55
2018-09-06T01:05:40.393Z,98966.33
2018-09-06T01:06:11.517Z,98962.24
2018-09-06T01:06:42.668Z,98960.92
2018-09-06T01:07:13.835Z,98962.24
2018-09-06T01:07:45.031Z,98963.69
2018-09-06T01:08:16.223Z,98959.83
2018-09-06T01:08:47.494Z,98963.42
2018-09-06T01:09:18.664Z,98957.77
2018-09-06T01:09:49.839Z,98963.14
2018-09-06T01:10:21.023Z,98953.02
2018-09-06T01:10:52.222Z,98959.29
2018-09-06T01:11:23.387Z,98956.64
2018-09-06T01:11:54.568Z,98961.93
2018-09-06T01:12:25.744Z,98951.36
2018-09-06T01:12:56.902Z,98958.30
2018-09-06T01:13:28.056Z,98954.83
2018-09-06T01:13:59.233Z,98953.88
2018-09-06T01:14:30.425Z,98954.83
2018-09-06T01:15:01.648Z,98953.88
2018-09-06T01:15:32.783Z,98958.30
2018-09-06T01:16:03.968Z,98953.14
2018-09-06T01:16:35.111Z,98956.16
2018-09-06T01:17:06.282Z,98954.34
2018-09-06T01:17:37.410Z,98958.22
2018-09-06T01:18:08.535Z,98955.66
2018-09-06T01:18:39.676Z,98963.59
2018-09-06T01:19:10.795Z,98956.16
2018-09-06T01:19:41.999Z,98957.36
2018-09-06T01:20:13.183Z,98952.85
2018-09-06T01:20:44.300Z,98955.50
2018-09-06T01:21:15.421Z,98956.70
2018-09-06T01:21:46.651Z,98954.31
2018-09-06T01:22:17.772Z,98954.19
2018-09-06T01:22:48.936Z,98956.75
2018-09-06T01:23:20.110Z,98952.55
2018-09-06T01:23:51.247Z,98959.91
2018-09-06T01:24:22.363Z,98956.66
2018-09-06T01:24:53.533Z,98958.72
2018-09-06T01:25:24.651Z,98958.23
2018-09-06T01:25:55.769Z,98960.42
2018-09-06T01:26:26.912Z,98955.33
2018-09-06T01:26:58.029Z,98959.30
2018-09-06T01:27:29.210Z,98957.72
2018-09-06T01:28:00.367Z,98959.16
2018-09-06T01:28:31.586Z,98959.73
2018-09-06T01:29:02.736Z,98965.77
2018-09-06T01:29:33.851Z,98960.11
2018-09-06T01:30:04.964Z,98959.40
2018-09-06T01:30:36.149Z,98963.94
2018-09-06T01:31:07.325Z,98956.20
2018-09-06T01:31:38.501Z,98956.20
2018-09-06T01:32:09.680Z,98954.89
2018-09-06T01:32:40.836Z,98958.52
2018-09-06T01:33:12.021Z,98953.80
2018-09-06T01:33:43.135Z,98960.78
2018-09-06T01:34:14.573Z,98952.48
2018-09-06T01:34:45.744Z,98953.80
2018-09-06T01:35:16.880Z,98947.19
2018-09-06T01:35:48.052Z,98948.28
2018-09-06T01:36:19.563Z,98949.60
2018-09-06T01:36:50.679Z,98957.19
2018-09-06T01:37:21.848Z,98953.94
2018-09-06T01:37:52.980Z,98949.02
2018-09-06T01:38:24.209Z,98951.80
2018-09-06T01:38:55.397Z,98948.47
2018-09-06T01:39:26.513Z,98949.09
2018-09-06T01:39:57.627Z,98951.63
2018-09-06T01:40:28.798Z,98948.52
2018-09-06T01:41:00.076Z,98948.52
2018-09-06T01:41:31.263Z,98945.50
2018-09-06T01:42:02.383Z,98948.52
2018-09-06T01:42:33.552Z,98949.84
2018-09-06T01:43:04.711Z,98941.53
2018-09-06T01:43:35.941Z,98947.94
2018-09-06T01:44:07.066Z,98947.57
2018-09-06T01:44:38.200Z,98947.57
2018-09-06T01:45:09.385Z,98943.60
2018-09-06T01:45:40.520Z,98945.88
2018-09-06T01:46:11.689Z,98944.75
2018-09-06T01:46:42.805Z,98946.08
2018-09-06T01:47:13.941Z,98949.22
2018-09-06T01:47:45.137Z,98952.23
2018-09-06T01:48:16.343Z,98940.45
2018-09-06T01:48:47.530Z,98953.30
2018-09-06T01:49:18.643Z,98948.01
2018-09-06T01:49:49.835Z,98937.18
2018-09-06T01:50:21.007Z,98948.96
2018-09-06T01:50:52.245Z,98942.92
2018-09-06T01:51:23.432Z,98941.72
2018-09-06T01:51:54.544Z,98946.18
2018-09-06T01:52:25.659Z,98940.97
2018-09-06T01:52:56.772Z,98941.84
2018-09-06T01:53:27.979Z,98937.50
2018-09-06T01:53:59.152Z,98941.84
2018-09-06T01:54:30.325Z,98939.08
2018-09-06T01:55:01.532Z,98945.20
2018-09-06T01:55:32.717Z,98948.83
2018-09-06T01:56:03.898Z,98941.84
2018-09-06T01:56:35.074Z,98940.14
2018-09-06T01:57:06.304Z,98940.52
2018-09-06T01:57:37.439Z,98947.50
2018-09-06T01:58:08.613Z,98943.99
2018-09-06T01:58:39.780Z,98943.67
2018-09-06T01:59:10.940Z,98940.45
2018-09-06T01:59:42.116Z,98939.84
2018-09-06T02:00:13.278Z,98939.84
2018-09-06T02:00:44.400Z,98944.67
2018-09-06T02:01:15.568Z,98940.21
2018-09-06T02:01:46.741Z,98940.59
2018-09-06T02:02:17.858Z,98944.18
2018-09-06T02:02:49.003Z,98946.25
2018-09-06T02:03:20.177Z,98943.97
2018-09-06T02:03:51.351Z,98946.01
2018-09-06T02:04:22.517Z,98946.12
2018-09-06T02:04:53.689Z,98946.88
2018-09-06T02:05:24.891Z,98938.33
2018-09-06T02:05:56.000Z,98943.50
2018-09-06T02:06:27.117Z,98935.23
2018-09-06T02:06:58.239Z,98942.30
2018-09-06T02:07:29.353Z,98945.06
2018-09-06T02:08:00.465Z,98943.48
2018-09-06T02:08:31.584Z,98941.91
2018-09-06T02:09:02.797Z,98944.67
2018-09-06T02:09:33.973Z,98950.05
2018-09-06T02:10:05.116Z,98946.08
2018-09-06T02:10:36.364Z,98945.73
2018-09-06T02:11:07.504Z,98949.09
2018-09-06T02:11:38.668Z,98948.72
2018-09-06T02:12:09.845Z,98947.52
2018-09-06T02:12:40.991Z,98944.88
2018-09-06T02:13:12.179Z,98944.50
2018-09-06T02:13:43.364Z,98949.70
2018-09-06T02:14:14.593Z,98940.53
2018-09-06T02:14:45.715Z,98947.06
2018-09-06T02:15:16.885Z,98942.11
2018-09-06T02:15:48.144Z,98945.25
2018-09-06T02:16:19.274Z,98943.92
2018-09-06T02:16:50.396Z,98948.84
2018-09-06T02:17:21.517Z,98950.66
2018-09-06T02:17:52.733Z,98953.75
2018-09-06T02:18:23.931Z,98946.69
2018-09-06T02:18:55.051Z,98947.64
2018-09-06T02:19:26.167Z,98941.86
2018-09-06T02:19:57.323Z,98944.25
2018-09-06T02:20:28.484Z,98941.41
2018-09-06T02:20:59.733Z,98944.42
2018-09-06T02:21:30.916Z,98942.48
2018-09-06T02:22:02.038Z,98940.95
2018-09-06T02:22:33.232Z,98935.06
2018-09-06T02:23:04.409Z,98939.77
2018-09-06T02:23:35.600Z,98947.83
2018-09-06T02:24:06.863Z,98937.50
2018-09-06T02:24:38.052Z,98938.82
2018-09-06T02:25:09.264Z,98942.67
2018-09-06T02:25:40.544Z,98942.92
2018-09-06T02:26:11.740Z,98934.98
2018-09-06T02:26:42.974Z,98935.73
2018-09-06T02:27:14.157Z,98941.27
2018-09-06T02:27:45.319Z,98942.48
2018-09-06T02:28:16.440Z,98938.52
2018-09-06T02:28:47.689Z,98932.84
2018-09-06T02:29:18.864Z,98942.48
2018-09-06T02:29:49.987Z,98933.34
2018-09-06T02:30:21.109Z,98941.73
2018-09-06T02:30:52.233Z,98939.09
2018-09-06T02:31:23.417Z,98944.75
2018-09-06T02:31:54.577Z,98942.22
2018-09-06T02:32:25.744Z,98940.91
2018-09-06T02:32:56.960Z,98933.09
2018-09-06T02:33:28.186Z,98931.27
2018-09-06T02:33:59.329Z,98928.51
2018-09-06T02:34:30.439Z,98932.48
2018-09-06T02:35:01.714Z,98939.83
2018-09-06T02:35:32.836Z,98937.44
2018-09-06T02:36:04.067Z,98940.34
2018-09-06T02:36:35.269Z,98939.51
2018-09-06T02:37:06.456Z,98935.54
2018-09-06T02:37:37.626Z,98939.39
2018-09-06T02:38:08.863Z,98939.27
2018-09-06T02:38:40.042Z,98936.25
2018-09-06T02:39:11.233Z,98940.13
2018-09-06T02:39:42.397Z,98937.48
2018-09-06T02:40:13.579Z,98938.31
2018-09-06T02:40:44.758Z,98943.15
2018-09-06T02:41:15.931Z,98940.84
2018-09-06T02:41:47.135Z,98940.63
2018-09-06T02:42:18.316Z,98933.90
2018-09-06T02:42:49.494Z,98936.91
2018-09-06T02:43:20.622Z,98939.06
2018-09-06T02:43:51.804Z,98928.11
2018-09-06T02:44:22.929Z,98936.30
2018-09-06T02:44:54.083Z,98933.65
2018-09-06T02:45:25.263Z,98934.39
2018-09-06T02:45:56.434Z,98931.13
2018-09-06T02:46:27.553Z,98931.75
2018-09-06T02:46:58.794Z,98933.65
2018-09-06T02:47:30.030Z,98935.67
2018-09-06T02:48:01.151Z,98929.75
2018-09-06T02:48:32.330Z,98931.69
2018-09-06T02:49:03.461Z,98928.42
2018-09-06T02:49:34.645Z,98927.44
2018-09-06T02:50:05.876Z,98927.94
2018-09-06T02:50:37.103Z,98923.22
2018-09-06T02:51:08.319Z,98934.41
2018-09-06T02:51:39.508Z,98927.63
2018-09-06T02:52:10.781Z,98931.60
2018-09-06T02:52:41.972Z,98928.62
2018-09-06T02:53:13.140Z,98926.92
2018-09-06T02:53:44.271Z,98928.24
2018-09-06T02:54:15.436Z,98934.48
2018-09-06T02:54:46.644Z,98932.21
2018-09-06T02:55:17.804Z,98932.78
2018-09-06T02:55:48.989Z,98934.23
2018-09-06T02:56:20.208Z,98930.14
2018-09-06T02:56:51.417Z,98925.72
2018-09-06T02:57:22.592Z,98931.47
2018-09-06T02:57:53.725Z,98931.34
2018-09-06T02:58:24.906Z,98930.02
2018-09-06T02:58:56.022Z,98925.23
2018-09-06T02:59:27.188Z,98930.52
2018-09-06T02:59:58.414Z,98929.20
2018-09-06T03:00:29.544Z,98927.05
2018-09-06T03:01:00.668Z,98925.34
2018-09-06T03:01:31.784Z,98931.26
2018-09-06T03:02:03.005Z,98923.08
2018-09-06T03:02:34.127Z,98919.36
2018-09-06T03:03:05.296Z,98926.31
2018-09-06T03:03:36.411Z,98933.30
2018-09-06T03:04:07.584Z,98924.16
2018-09-06T03:04:38.764Z,98928.62
2018-09-06T03:05:09.977Z,98928.13
2018-09-06T03:05:41.160Z,98927.30
2018-09-06T03:06:12.340Z,98927.55
2018-09-06T03:06:43.516Z,98920.44
2018-09-06T03:07:14.639Z,98922.62
2018-09-06T03:07:45.749Z,98922.72
2018-09-06T03:08:17.029Z,98926.69
2018-09-06T03:08:48.212Z,98927.30
2018-09-06T03:09:19.342Z,98927.63
2018-09-06T03:09:50.505Z,98914.65
2018-09-06T03:10:21.637Z,98925.80
2018-09-06T03:10:52.763Z,98920.76
2018-09-06T03:11:24.001Z,98927.94
2018-09-06T03:11:55.224Z,98928.27
2018-09-06T03:12:26.344Z,98925.42
2018-09-06T03:12:57.517Z,98928.64
2018-09-06T03:13:28.640Z,98931.03
2018-09-06T03:13:59.750Z,98928.38
2018-09-06T03:14:30.925Z,98931.98
2018-09-06T03:15:02.114Z,98926.23
2018-09-06T03:15:33.323Z,98928.99
2018-09-06T03:16:04.498Z,98932.22
2018-09-06T03:16:35.672Z,98931.27
2018-09-06T03:17:06.847Z,98926.18
2018-09-06T03:17:37.965Z,98931.59
2018-09-06T03:18:09.179Z,98921.50
2018-09-06T03:18:40.298Z,98928.45
2018-09-06T03:19:11.478Z,98926.30
2018-09-06T03:19:42.647Z,98926.80
2018-09-06T03:20:13.829Z,98929.44
2018-09-06T03:20:44.950Z,98931.09
2018-09-06T03:21:16.093Z,98931.22
2018-09-06T03:21:47.303Z,98930.64
2018-09-06T03:22:18.455Z,98932.91
2018-09-06T03:22:49.679Z,98926.80
2018-09-06T03:23:20.854Z,98933.40
2018-09-06T03:23:52.034Z,98927.13
2018-09-06T03:24:23.224Z,98930.75
2018-09-06T03:24:54.405Z,98925.47
2018-09-06T03:25:25.689Z,98929.44
2018-09-06T03:25:56.865Z,98924.23
2018-09-06T03:26:28.120Z,98933.86
2018-09-06T03:27:00.187Z,98929.06
2018-09-06T03:27:31.348Z,98925.09
2018-09-06T03:28:02.556Z,98927.73
2018-09-06T03:28:33.736Z,98930.75
2018-09-06T03:29:04.918Z,98925.09
2018-09-06T03:29:36.038Z,98928.11
2018-09-06T03:30:07.219Z,98923.28
2018-09-06T03:30:38.404Z,98920.27
2018-09-06T03:31:09.538Z,98929.60
2018-09-06T03:31:40.680Z,98924.44
2018-09-06T03:32:11.895Z,98925.75
2018-09-06T03:32:43.020Z,98923.60
2018-09-06T03:33:14.236Z,98930.67
2018-09-06T03:33:45.349Z,98924.63
2018-09-06T03:34:16.480Z,98926.08
2018-09-06T03:34:47.599Z,98920.79
2018-09-06T03:35:18.781Z,98930.27
2018-09-06T03:35:49.951Z,98926.31
2018-09-06T03:36:21.075Z,98922.92
2018-09-06T03:36:52.255Z,98932.17
2018-09-06T03:37:23.472Z,98930.48
2018-09-06T03:37:54.594Z,98929.16
2018-09-06T03:38:25.801Z,98930.10
2018-09-06T03:38:56.927Z,98937.31
2018-09-06T03:39:28.037Z,98930.10
2018-09-06T03:39:59.159Z,98922.17
2018-09-06T03:40:30.325Z,98931.80
2018-09-06T03:41:01.501Z,98935.39
2018-09-06T03:41:32.616Z,98932.75
2018-09-06T03:42:03.829Z,98924.61
2018-09-06T03:42:34.961Z,98932.05
2018-09-06T03:43:06.073Z,98933.00
2018-09-06T03:43:37.268Z,98933.49
2018-09-06T03:44:08.453Z,98938.78
2018-09-06T03:44:39.636Z,98939.72
2018-09-06T03:45:10.844Z,98943.69
2018-09-06T03:45:41.951Z,98945.38
2018-09-06T03:46:13.134Z,98931.68
2018-09-06T03:46:44.244Z,98941.30
2018-09-06T03:47:15.436Z,98938.66
2018-09-06T03:47:46.555Z,98936.88
2018-09-06T03:48:17.732Z,98939.90
2018-09-06T03:48:48.904Z,98948.09
2018-09-06T03:49:20.122Z,98938.14
2018-09-06T03:49:51.296Z,98941.13
2018-09-06T03:50:22.496Z,98945.00
2018-09-06T03:50:53.624Z,98946.33
2018-09-06T03:51:24.845Z,98942.45
2018-09-06T03:51:56.027Z,98939.80
2018-09-06T03:52:27.212Z,98941.61
2018-09-06T03:52:58.383Z,98944.46
2018-09-06T03:53:29.556Z,98950.23
2018-09-06T03:54:00.720Z,98946.90
2018-09-06T03:54:31.904Z,98953.25
2018-09-06T03:55:03.071Z,98950.23
2018-09-06T03:55:34.312Z,98950.73
2018-09-06T03:56:05.487Z,98948.17
2018-09-06T03:56:36.714Z,98952.88
2018-09-06T03:57:07.896Z,98952.51
2018-09-06T03:57:39.087Z,98950.92
2018-09-06T03:58:10.266Z,98956.59
2018-09-06T03:58:41.375Z,98956.09
2018-09-06T03:59:12.524Z,98963.08
2018-09-06T03:59:43.694Z,98955.90
2018-09-06T04:00:14.835Z,98956.98
2018-09-06T04:00:46.004Z,98962.48
2018-09-06T04:01:17.187Z,98954.69
2018-09-06T04:01:48.351Z,98963.45
2018-09-06T04:02:19.473Z,98964.31
2018-09-06T04:02:50.592Z,98961.67
2018-09-06T04:03:21.771Z,98959.48
2018-09-06T04:03:52.948Z,98956.37
2018-09-06T04:04:24.212Z,98967.79
2018-09-06T04:04:55.397Z,98959.59
2018-09-06T04:05:26.513Z,98957.33
2018-09-06T04:05:57.676Z,98965.63
2018-09-06T04:06:28.840Z,98960.34
2018-09-06T04:07:00.006Z,98964.43
2018-09-06T04:07:31.223Z,98963.45
2018-09-06T04:08:02.399Z,98966.58
2018-09-06T04:08:33.586Z,98962.61
2018-09-06T04:09:04.759Z,98966.78
2018-09-06T04:09:35.885Z,98962.48
2018-09-06T04:10:07.055Z,98963.97
2018-09-06T04:10:38.181Z,98957.77
2018-09-06T04:11:09.449Z,98970.03
2018-09-06T04:11:40.571Z,98969.55
2018-09-06T04:12:11.745Z,98961.16
2018-09-06T04:12:42.867Z,98973.19
2018-09-06T04:13:13.983Z,98964.13
2018-09-06T04:13:45.107Z,98967.80
2018-09-06T04:14:16.267Z,98966.08
2018-09-06T04:14:47.433Z,98959.03
2018-09-06T04:15:18.560Z,98965.82
2018-09-06T04:15:49.730Z,98962.85
2018-09-06T04:16:20.868Z,98963.97
2018-09-06T04:16:52.056Z,98966.91
2018-09-06T04:17:23.182Z,98965.41
2018-09-06T04:17:54.412Z,98972.03
2018-09-06T04:18:25.597Z,98969.66
2018-09-06T04:18:56.716Z,98973.17
2018-09-06T04:19:27.936Z,98973.93
2018-09-06T04:19:59.169Z,98970.94
2018-09-06T04:20:30.303Z,98974.34
2018-09-06T04:21:01.490Z,98979.64
2018-09-06T04:21:32.693Z,98979.65
2018-09-06T04:22:03.870Z,98983.55
2018-09-06T04:22:35.060Z,98979.58
2018-09-06T04:23:06.236Z,98975.48
2018-09-06T04:23:37.432Z,98978.74
2018-09-06T04:24:08.616Z,98979.57
2018-09-06T04:24:39.775Z,98971.02
2018-09-06T04:25:10.905Z,98977.88
2018-09-06T04:25:42.024Z,98969.70
2018-09-06T04:26:13.207Z,98969.68
2018-09-06T04:26:44.416Z,98973.67
2018-09-06T04:27:15.564Z,98975.36
2018-09-06T04:27:46.669Z,98979.81
2018-09-06T04:28:17.805Z,98979.82
2018-09-06T04:28:48.989Z,98981.13
2018-09-06T04:29:20.125Z,98979.20
2018-09-06T04:29:51.328Z,98978.48
2018-09-06T04:30:22.551Z,98979.17
2018-09-06T04:30:53.707Z,98978.92
2018-09-06T04:31:24.882Z,98977.10
2018-09-06T04:31:55.996Z,98977.97
2018-09-06T04:32:27.175Z,98969.50
2018-09-06T04:32:58.345Z,98970.70
2018-09-06T04:33:29.573Z,98972.52
2018-09-06T04:34:00.842Z,98972.26
2018-09-06T04:34:31.974Z,98971.76
2018-09-06T04:35:03.098Z,98965.16
2018-09-06T04:35:34.370Z,98969.27
2018-09-06T04:36:05.589Z,98976.11
2018-09-06T04:36:36.707Z,98968.46
2018-09-06T04:37:07.969Z,98975.18
2018-09-06T04:37:39.145Z,98977.55
2018-09-06T04:38:10.371Z,98976.92
2018-09-06T04:38:41.520Z,98971.96
2018-09-06T04:39:12.746Z,98971.69
2018-09-06T04:39:43.920Z,98967.70
2018-09-06T04:40:15.043Z,98962.67
2018-09-06T04:40:46.184Z,98974.77
2018-09-06T04:41:17.352Z,98971.59
2018-09-06T04:41:48.464Z,98964.45
2018-09-06T04:42:19.582Z,98969.39
2018-09-06T04:42:50.864Z,98969.03
2018-09-06T04:43:22.037Z,98971.69
2018-09-06T04:43:53.263Z,98972.77
2018-09-06T04:44:24.366Z,98971.69
2018-09-06T04:44:55.531Z,98972.66
2018-09-06T04:45:26.694Z,98973.83
2018-09-06T04:45:57.872Z,98978.06
2018-09-06T04:46:29.046Z,98977.92
2018-09-06T04:47:00.224Z,98974.41
2018-09-06T04:47:31.339Z,98977.70
2018-09-06T04:48:02.518Z,98976.81
2018-09-06T04:48:33.749Z,98976.66
2018-09-06T04:49:04.955Z,98973.81
2018-09-06T04:49:36.125Z,98982.88
2018-09-06T04:50:07.273Z,98974.40
2018-09-06T04:50:38.469Z,98976.59
2018-09-06T04:51:09.585Z,98982.49
2018-09-06T04:51:40.697Z,98980.50
2018-09-06T04:52:11.863Z,98978.78
2018-09-06T04:52:43.137Z,98973.94
2018-09-06T04:53:14.271Z,98978.14
2018-09-06T04:53:45.441Z,98979.92
2018-09-06T04:54:16.552Z,98986.48
2018-09-06T04:54:47.663Z,98976.89
2018-09-06T04:55:18.843Z,98981.29
2018-09-06T04:55:50.048Z,98982.23
2018-09-06T04:56:21.277Z,98978.59
2018-09-06T04:56:52.404Z,98981.44
2018-09-06T04:57:23.563Z,98982.16
2018-09-06T04:57:54.700Z,98986.53
2018-09-06T04:58:25.947Z,98979.66
2018-09-06T04:58:57.088Z,98985.48
2018-09-06T04:59:28.268Z,98990.25
2018-09-06T04:59:59.447Z,98978.81
2018-09-06T05:00:30.566Z,98982.86
2018-09-06T05:01:01.777Z,98983.33
2018-09-06T05:01:32.944Z,98976.59
2018-09-06T05:02:04.073Z,98988.20
2018-09-06T05:02:35.197Z,98985.66
2018-09-06T05:03:06.311Z,98988.39
2018-09-06T05:03:37.451Z,98982.86
2018-09-06T05:04:08.746Z,98987.23
2018-09-06T05:04:39.847Z,98978.67
2018-09-06T05:05:10.959Z,98976.90
2018-09-06T05:05:42.080Z,98990.69
2018-09-06T05:06:13.300Z,98992.38
2018-09-06T05:06:44.444Z,98989.67
2018-09-06T05:07:15.564Z,98983.92
2018-09-06T05:07:46.744Z,98990.62
2018-09-06T05:08:17.863Z,98989.16
2018-09-06T05:08:48.980Z,99000.58
2018-09-06T05:09:20.150Z,98992.33
2018-09-06T05:09:51.377Z,98990.47
2018-09-06T05:10:22.503Z,98989.81
2018-09-06T05:10:53.674Z,99001.31
2018-09-06T05:11:24.852Z,98996.02
2018-09-06T05:11:55.998Z,98997.70
2018-09-06T05:12:27.156Z,98995.77
2018-09-06T05:12:58.273Z,98999.76
2018-09-06T05:13:29.384Z,98989.95
2018-09-06T05:14:00.507Z,99001.17
2018-09-06T05:14:31.720Z,98986.84
2018-09-06T05:15:02.901Z,98999.92
2018-09-06T05:15:34.023Z,98998.89
2018-09-06T05:16:05.189Z,98993.22
2018-09-06T05:16:36.355Z,99000.89
2018-09-06T05:17:07.538Z,99002.14
2018-09-06T05:17:38.699Z,99003.16
2018-09-06T05:18:09.903Z,99000.56
2018-09-06T05:18:41.088Z,98998.20
2018-09-06T05:19:12.256Z,99004.59
2018-09-06T05:19:43.460Z,98997.95
2018-09-06T05:20:14.704Z,98998.76
2018-09-06T05:20:45.823Z,98999.62
2018-09-06T05:21:16.988Z,98999.92
2018-09-06T05:21:48.192Z,98995.99
2018-09-06T05:22:19.384Z,98993.94
2018-09-06T05:22:50.604Z,98999.17
2018-09-06T05:23:21.781Z,99003.22
2018-09-06T05:23:52.887Z,98993.19
2018-09-06T05:24:24.056Z,98996.02
2018-09-06T05:24:55.233Z,99000.75
2018-09-06T05:25:26.453Z,99004.43
2018-09-06T05:25:57.623Z,99001.77
2018-09-06T05:26:28.752Z,98993.41
2018-09-06T05:26:59.917Z,98998.91
2018-09-06T05:27:31.031Z,99002.28
2018-09-06T05:28:02.240Z,98994.41
2018-09-06T05:28:33.440Z,98999.14
2018-09-06T05:29:04.645Z,99003.02
2018-09-06T05:29:35.804Z,99002.80
2018-09-06T05:30:07.070Z,98999.70
2018-09-06T05:30:38.203Z,99003.66
2018-09-06T05:31:09.431Z,99003.66
2018-09-06T05:31:40.553Z,98996.41
2018-09-06T05:32:11.742Z,99001.27
2018-09-06T05:32:42.908Z,99001.63
2018-09-06T05:33:14.075Z,99004.05
2018-09-06T05:33:45.309Z,98997.80
2018-09-06T05:34:16.493Z,99010.70
2018-09-06T05:34:47.669Z,99003.05
2018-09-06T05:35:18.799Z,99010.42
2018-09-06T05:35:50.022Z,99001.48
2018-09-06T05:36:21.280Z,99005.11
2018-09-06T05:36:52.471Z,99007.30
2018-09-06T05:37:23.641Z,99002.43
2018-09-06T05:37:54.753Z,99005.48
2018-09-06T05:38:26.024Z,99004.52
2018-09-06T05:38:57.179Z,99008.50
2018-09-06T05:39:28.295Z,99002.36
2018-09-06T05:39:59.416Z,99014.91
2018-09-06T05:41:01.468Z,99000.96
2018-09-06T05:41:32.678Z,98996.84
2018-09-06T05:42:03.908Z,98999.50
2018-09-06T05:42:35.026Z,99004.43
2018-09-06T05:43:06.184Z,99006.43
2018-09-06T05:43:37.409Z,99002.66
2018-09-06T05:44:08.539Z,99001.31
2018-09-06T05:44:39.760Z,99001.97
2018-09-06T05:45:10.955Z,99010.67
2018-09-06T05:45:42.068Z,98991.50
2018-09-06T05:46:13.237Z,99005.08
2018-09-06T05:46:44.359Z,99002.08
2018-09-06T05:47:15.478Z,98999.94
2018-09-06T05:47:46.704Z,99004.57
2018-09-06T05:48:17.815Z,99007.45
2018-09-06T05:48:49.041Z,99001.77
2018-09-06T05:49:20.208Z,99003.05
2018-09-06T05:49:51.449Z,99010.64
2018-09-06T05:50:22.560Z,99009.14
2018-09-06T05:50:53.720Z,99006.01
2018-09-06T05:51:24.847Z,99008.44
2018-09-06T05:51:56.022Z,99010.52
2018-09-06T05:52:27.148Z,99006.66
2018-09-06T05:52:58.292Z,99008.13
2018-09-06T05:53:29.433Z,99005.39
2018-09-06T05:54:00.672Z,99002.28
2018-09-06T05:54:31.852Z,99010.95
2018-09-06T05:55:02.962Z,99011.17
2018-09-06T05:55:34.132Z,99000.02
2018-09-06T05:56:05.265Z,99004.00
2018-09-06T05:56:36.522Z,99001.98
2018-09-06T05:57:07.640Z,99002.95
2018-09-06T05:57:38.818Z,99010.34
2018-09-06T05:58:09.996Z,99005.39
2018-09-06T05:58:41.187Z,99007.55
2018-09-06T05:59:12.369Z,99004.28
2018-09-06T05:59:43.604Z,98990.85
2018-09-06T06:00:14.825Z,99004.39
2018-09-06T06:00:45.949Z,99005.25
2018-09-06T06:01:17.077Z,99007.91
2018-09-06T06:01:48.250Z,99009.96
2018-09-06T06:02:19.437Z,99005.33
2018-09-06T06:02:50.562Z,99006.20
2018-09-06T06:03:21.783Z,99004.43
2018-09-06T06:03:52.911Z,99000.16
2018-09-06T06:04:24.077Z,99009.39
2018-09-06T06:04:55.195Z,99005.09
2018-09-06T06:05:26.460Z,99005.11
2018-09-06T06:05:57.540Z,99003.05
2018-09-06T06:06:28.669Z,99005.48